sensor_id;sensor_type;location;lat;lon;timestamp;temperature;humidity
30063;DHT22;16889;67.864;24.990;2023-06-22T00:00:03;15.50;99.90
30063;DHT22;16889;67.864;24.990;2023-06-22T00:04:54;15.40;99.90
30063;DHT22;16889;67.864;24.990;2023-06-22T00:09:40;15.40;99.90
30063;DHT22;16889;67.864;24.990;2023-06-22T00:14:26;15.30;99.90
30063;DHT22;16889;67.864;24.990;2023-06-22T00:19:12;15.30;99.90
30063;DHT22;16889;67.864;24.990;2023-06-22T00:23:58;15.40;99.90
30063;DHT22;16889;67.864;24.990;2023-06-22T00:28:44;15.50;99.90
30063;DHT22;16889;67.864;24.990;2023-06-22T00:33:30;15.50;99.90
30063;DHT22;16889;67.864;24.990;2023-06-22T00:38:17;15.50;99.90
30063;DHT22;16889;67.864;24.990;2023-06-22T00:43:03;15.50;99.90
30063;DHT22;16889;67.864;24.990;2023-06-22T00:47:56;15.60;99.90
30063;DHT22;16889;67.864;24.990;2023-06-22T00:52:43;15.50;99.90
30063;DHT22;16889;67.864;24.990;2023-06-22T00:57:32;15.70;99.90
30063;DHT22;16889;67.864;24.990;2023-06-22T01:02:18;15.90;99.90
30063;DHT22;16889;67.864;24.990;2023-06-22T01:07:25;16.00;99.90
30063;DHT22;16889;67.864;24.990;2023-06-22T01:12:18;16.00;99.90
30063;DHT22;16889;67.864;24.990;2023-06-22T01:17:05;16.00;99.90
30063;DHT22;16889;67.864;24.990;2023-06-22T01:21:51;15.90;99.90
30063;DHT22;16889;67.864;24.990;2023-06-22T01:26:43;15.90;99.90
30063;DHT22;16889;67.864;24.990;2023-06-22T01:31:35;15.80;99.90
30063;DHT22;16889;67.864;24.990;2023-06-22T01:36:22;15.80;99.90
30063;DHT22;16889;67.864;24.990;2023-06-22T01:41:09;15.80;99.90
30063;DHT22;16889;67.864;24.990;2023-06-22T01:45:56;16.00;99.90
30063;DHT22;16889;67.864;24.990;2023-06-22T01:50:43;16.10;99.90
30063;DHT22;16889;67.864;24.990;2023-06-22T01:55:29;16.20;99.90
30063;DHT22;16889;67.864;24.990;2023-06-22T02:00:19;16.20;99.90
30063;DHT22;16889;67.864;24.990;2023-06-22T02:05:09;16.20;99.90
30063;DHT22;16889;67.864;24.990;2023-06-22T02:09:57;16.00;99.90
30063;DHT22;16889;67.864;24.990;2023-06-22T02:14:45;16.10;99.90
30063;DHT22;16889;67.864;24.990;2023-06-22T02:19:38;16.20;99.90
30063;DHT22;16889;67.864;24.990;2023-06-22T02:24:24;16.10;99.90
30063;DHT22;16889;67.864;24.990;2023-06-22T02:29:10;16.00;99.90
30063;DHT22;16889;67.864;24.990;2023-06-22T02:33:58;15.90;99.90
30063;DHT22;16889;67.864;24.990;2023-06-22T02:38:44;16.10;99.90
30063;DHT22;16889;67.864;24.990;2023-06-22T02:43:33;16.10;99.90
30063;DHT22;16889;67.864;24.990;2023-06-22T02:48:19;16.10;99.90
30063;DHT22;16889;67.864;24.990;2023-06-22T02:53:10;16.20;99.90
30063;DHT22;16889;67.864;24.990;2023-06-22T02:58:02;16.10;99.90
30063;DHT22;16889;67.864;24.990;2023-06-22T03:02:50;16.20;99.90
30063;DHT22;16889;67.864;24.990;2023-06-22T03:07:36;16.40;99.90
30063;DHT22;16889;67.864;24.990;2023-06-22T03:12:22;16.60;99.90
30063;DHT22;16889;67.864;24.990;2023-06-22T03:17:09;16.60;99.90
30063;DHT22;16889;67.864;24.990;2023-06-22T03:21:57;16.50;99.90
30063;DHT22;16889;67.864;24.990;2023-06-22T03:26:43;16.50;99.90
30063;DHT22;16889;67.864;24.990;2023-06-22T03:31:32;16.60;99.90
30063;DHT22;16889;67.864;24.990;2023-06-22T03:36:18;16.60;99.90
30063;DHT22;16889;67.864;24.990;2023-06-22T03:41:04;16.70;99.90
30063;DHT22;16889;67.864;24.990;2023-06-22T03:45:50;16.40;99.90
30063;DHT22;16889;67.864;24.990;2023-06-22T03:50:36;16.60;99.90
30063;DHT22;16889;67.864;24.990;2023-06-22T03:55:22;16.50;99.90
30063;DHT22;16889;67.864;24.990;2023-06-22T04:00:09;16.70;99.90
30063;DHT22;16889;67.864;24.990;2023-06-22T04:04:55;16.70;99.90
30063;DHT22;16889;67.864;24.990;2023-06-22T04:09:41;16.40;99.90
30063;DHT22;16889;67.864;24.990;2023-06-22T04:14:27;16.30;99.90
30063;DHT22;16889;67.864;24.990;2023-06-22T04:19:13;16.10;99.90
30063;DHT22;16889;67.864;24.990;2023-06-22T04:24:02;16.20;99.90
30063;DHT22;16889;67.864;24.990;2023-06-22T04:28:48;16.10;99.90
30063;DHT22;16889;67.864;24.990;2023-06-22T04:33:40;16.00;99.90
30063;DHT22;16889;67.864;24.990;2023-06-22T04:38:27;16.00;99.90
30063;DHT22;16889;67.864;24.990;2023-06-22T04:43:13;16.10;99.90
30063;DHT22;16889;67.864;24.990;2023-06-22T04:47:59;16.00;99.90
30063;DHT22;16889;67.864;24.990;2023-06-22T04:52:45;16.00;99.90
30063;DHT22;16889;67.864;24.990;2023-06-22T04:57:31;16.00;99.90
30063;DHT22;16889;67.864;24.990;2023-06-22T05:02:20;15.90;99.90
30063;DHT22;16889;67.864;24.990;2023-06-22T05:07:06;15.90;99.90
30063;DHT22;16889;67.864;24.990;2023-06-22T05:11:52;15.90;99.90
30063;DHT22;16889;67.864;24.990;2023-06-22T05:16:38;15.80;99.90
30063;DHT22;16889;67.864;24.990;2023-06-22T05:21:26;15.80;99.90
30063;DHT22;16889;67.864;24.990;2023-06-22T05:26:12;15.80;99.90
30063;DHT22;16889;67.864;24.990;2023-06-22T05:30:58;15.90;99.90
30063;DHT22;16889;67.864;24.990;2023-06-22T05:35:44;15.90;99.90
30063;DHT22;16889;67.864;24.990;2023-06-22T05:40:30;15.70;99.90
30063;DHT22;16889;67.864;24.990;2023-06-22T05:45:16;15.90;99.90
30063;DHT22;16889;67.864;24.990;2023-06-22T05:50:02;15.90;99.90
30063;DHT22;16889;67.864;24.990;2023-06-22T05:54:52;16.10;99.90
30063;DHT22;16889;67.864;24.990;2023-06-22T05:59:38;16.20;99.90
30063;DHT22;16889;67.864;24.990;2023-06-22T06:04:24;16.00;99.90
30063;DHT22;16889;67.864;24.990;2023-06-22T06:09:10;16.00;99.90
30063;DHT22;16889;67.864;24.990;2023-06-22T06:13:57;16.00;99.90
30063;DHT22;16889;67.864;24.990;2023-06-22T06:18:43;16.20;99.90
30063;DHT22;16889;67.864;24.990;2023-06-22T06:23:29;16.30;99.90
30063;DHT22;16889;67.864;24.990;2023-06-22T06:28:15;16.00;99.90
30063;DHT22;16889;67.864;24.990;2023-06-22T06:33:01;16.00;99.90
30063;DHT22;16889;67.864;24.990;2023-06-22T06:37:48;15.90;99.90
30063;DHT22;16889;67.864;24.990;2023-06-22T06:42:34;16.00;99.90
30063;DHT22;16889;67.864;24.990;2023-06-22T06:47:20;16.10;99.90
30063;DHT22;16889;67.864;24.990;2023-06-22T06:52:06;16.20;99.90
30063;DHT22;16889;67.864;24.990;2023-06-22T06:56:52;16.10;99.90
30063;DHT22;16889;67.864;24.990;2023-06-22T07:01:38;16.30;99.90
30063;DHT22;16889;67.864;24.990;2023-06-22T07:06:24;16.20;99.90
30063;DHT22;16889;67.864;24.990;2023-06-22T07:11:14;16.10;99.90
30063;DHT22;16889;67.864;24.990;2023-06-22T07:16:00;16.10;99.90
30063;DHT22;16889;67.864;24.990;2023-06-22T07:20:47;16.10;99.90
30063;DHT22;16889;67.864;24.990;2023-06-22T07:25:33;16.20;99.90
30063;DHT22;16889;67.864;24.990;2023-06-22T07:30:19;16.20;99.90
30063;DHT22;16889;67.864;24.990;2023-06-22T07:35:05;16.30;99.90
30063;DHT22;16889;67.864;24.990;2023-06-22T07:39:52;16.40;99.90
30063;DHT22;16889;67.864;24.990;2023-06-22T07:44:39;16.30;99.90
30063;DHT22;16889;67.864;24.990;2023-06-22T07:49:25;16.30;99.90
30063;DHT22;16889;67.864;24.990;2023-06-22T07:54:11;16.30;99.90
30063;DHT22;16889;67.864;24.990;2023-06-22T07:58:57;16.50;99.90
30063;DHT22;16889;67.864;24.990;2023-06-22T08:03:44;16.50;99.90
30063;DHT22;16889;67.864;24.990;2023-06-22T08:08:30;16.60;99.90
30063;DHT22;16889;67.864;24.990;2023-06-22T08:13:16;16.80;99.90
30063;DHT22;16889;67.864;24.990;2023-06-22T08:18:02;16.80;99.90
30063;DHT22;16889;67.864;24.990;2023-06-22T08:22:48;16.70;99.90
30063;DHT22;16889;67.864;24.990;2023-06-22T08:27:34;16.60;99.90
30063;DHT22;16889;67.864;24.990;2023-06-22T08:32:21;16.70;99.90
30063;DHT22;16889;67.864;24.990;2023-06-22T08:37:07;16.80;99.90
30063;DHT22;16889;67.864;24.990;2023-06-22T08:41:54;16.70;99.90
30063;DHT22;16889;67.864;24.990;2023-06-22T08:46:40;16.60;99.90
30063;DHT22;16889;67.864;24.990;2023-06-22T08:51:26;16.60;99.90
30063;DHT22;16889;67.864;24.990;2023-06-22T08:56:12;16.60;99.90
30063;DHT22;16889;67.864;24.990;2023-06-22T09:00:58;16.50;99.90
30063;DHT22;16889;67.864;24.990;2023-06-22T09:05:46;16.60;99.90
30063;DHT22;16889;67.864;24.990;2023-06-22T09:10:32;16.60;99.90
30063;DHT22;16889;67.864;24.990;2023-06-22T09:15:18;16.70;99.90
30063;DHT22;16889;67.864;24.990;2023-06-22T09:20:04;16.60;99.90
30063;DHT22;16889;67.864;24.990;2023-06-22T09:24:51;16.80;99.90
30063;DHT22;16889;67.864;24.990;2023-06-22T09:29:37;16.50;99.90
30063;DHT22;16889;67.864;24.990;2023-06-22T09:34:23;16.70;99.90
30063;DHT22;16889;67.864;24.990;2023-06-22T09:39:09;16.60;99.90
30063;DHT22;16889;67.864;24.990;2023-06-22T09:43:55;16.70;99.90
30063;DHT22;16889;67.864;24.990;2023-06-22T09:48:41;16.60;99.90
30063;DHT22;16889;67.864;24.990;2023-06-22T09:53:27;16.80;99.90
30063;DHT22;16889;67.864;24.990;2023-06-22T09:58:14;17.00;99.90
30063;DHT22;16889;67.864;24.990;2023-06-22T10:03:00;16.90;99.90
30063;DHT22;16889;67.864;24.990;2023-06-22T10:07:46;16.90;99.90
30063;DHT22;16889;67.864;24.990;2023-06-22T10:12:32;17.00;99.90
30063;DHT22;16889;67.864;24.990;2023-06-22T10:17:17;17.20;99.90
30063;DHT22;16889;67.864;24.990;2023-06-22T10:22:05;17.60;99.90
30063;DHT22;16889;67.864;24.990;2023-06-22T10:26:51;17.90;99.90
30063;DHT22;16889;67.864;24.990;2023-06-22T10:31:37;18.10;99.90
30063;DHT22;16889;67.864;24.990;2023-06-22T10:36:23;18.20;99.90
30063;DHT22;16889;67.864;24.990;2023-06-22T10:41:09;18.20;99.90
30063;DHT22;16889;67.864;24.990;2023-06-22T10:45:55;18.20;99.90
30063;DHT22;16889;67.864;24.990;2023-06-22T10:50:41;18.10;99.90
30063;DHT22;16889;67.864;24.990;2023-06-22T10:55:27;18.20;99.90
30063;DHT22;16889;67.864;24.990;2023-06-22T11:00:14;18.50;99.90
30063;DHT22;16889;67.864;24.990;2023-06-22T11:05:00;18.70;99.90
30063;DHT22;16889;67.864;24.990;2023-06-22T11:09:46;18.70;99.90
30063;DHT22;16889;67.864;24.990;2023-06-22T11:14:32;18.70;99.90
30063;DHT22;16889;67.864;24.990;2023-06-22T11:19:21;19.00;99.90
30063;DHT22;16889;67.864;24.990;2023-06-22T11:24:07;18.90;99.90
30063;DHT22;16889;67.864;24.990;2023-06-22T11:28:53;19.00;99.90
30063;DHT22;16889;67.864;24.990;2023-06-22T11:33:39;18.90;99.90
30063;DHT22;16889;67.864;24.990;2023-06-22T11:38:25;18.90;99.90
30063;DHT22;16889;67.864;24.990;2023-06-22T11:43:11;19.20;99.90
30063;DHT22;16889;67.864;24.990;2023-06-22T11:47:58;19.40;99.90
30063;DHT22;16889;67.864;24.990;2023-06-22T11:52:44;19.30;99.90
30063;DHT22;16889;67.864;24.990;2023-06-22T11:57:30;19.30;99.90
30063;DHT22;16889;67.864;24.990;2023-06-22T12:02:16;19.10;99.90
30063;DHT22;16889;67.864;24.990;2023-06-22T12:07:02;19.10;99.90
30063;DHT22;16889;67.864;24.990;2023-06-22T12:11:48;19.20;99.90
30063;DHT22;16889;67.864;24.990;2023-06-22T12:16:34;19.40;99.90
30063;DHT22;16889;67.864;24.990;2023-06-22T12:21:20;19.20;99.90
30063;DHT22;16889;67.864;24.990;2023-06-22T12:26:06;19.00;99.90
30063;DHT22;16889;67.864;24.990;2023-06-22T12:30:52;18.80;99.90
30063;DHT22;16889;67.864;24.990;2023-06-22T12:35:38;18.70;99.90
30063;DHT22;16889;67.864;24.990;2023-06-22T12:40:24;18.70;99.90
30063;DHT22;16889;67.864;24.990;2023-06-22T12:45:10;18.60;99.90
30063;DHT22;16889;67.864;24.990;2023-06-22T12:49:56;18.40;99.90
30063;DHT22;16889;67.864;24.990;2023-06-22T12:54:42;18.30;99.90
30063;DHT22;16889;67.864;24.990;2023-06-22T12:59:28;18.40;99.90
30063;DHT22;16889;67.864;24.990;2023-06-22T13:04:14;18.50;99.90
30063;DHT22;16889;67.864;24.990;2023-06-22T13:09:00;18.60;99.90
30063;DHT22;16889;67.864;24.990;2023-06-22T13:13:46;18.50;99.90
30063;DHT22;16889;67.864;24.990;2023-06-22T13:18:33;18.60;99.90
30063;DHT22;16889;67.864;24.990;2023-06-22T13:23:21;18.50;99.90
30063;DHT22;16889;67.864;24.990;2023-06-22T13:28:07;18.70;99.90
30063;DHT22;16889;67.864;24.990;2023-06-22T13:32:54;18.80;99.90
30063;DHT22;16889;67.864;24.990;2023-06-22T13:37:40;18.90;99.90
30063;DHT22;16889;67.864;24.990;2023-06-22T13:42:26;19.10;99.90
30063;DHT22;16889;67.864;24.990;2023-06-22T13:47:12;19.10;99.90
30063;DHT22;16889;67.864;24.990;2023-06-22T13:51:58;19.10;99.90
30063;DHT22;16889;67.864;24.990;2023-06-22T13:56:43;19.00;99.90
30063;DHT22;16889;67.864;24.990;2023-06-22T14:01:29;19.30;99.90
30063;DHT22;16889;67.864;24.990;2023-06-22T14:06:15;19.50;99.90
30063;DHT22;16889;67.864;24.990;2023-06-22T14:11:01;19.60;99.90
30063;DHT22;16889;67.864;24.990;2023-06-22T14:15:47;19.50;99.90
30063;DHT22;16889;67.864;24.990;2023-06-22T14:20:33;19.70;99.90
30063;DHT22;16889;67.864;24.990;2023-06-22T14:25:19;20.20;99.90
30063;DHT22;16889;67.864;24.990;2023-06-22T14:30:06;20.80;99.90
30063;DHT22;16889;67.864;24.990;2023-06-22T14:34:52;20.60;99.90
30063;DHT22;16889;67.864;24.990;2023-06-22T14:39:38;21.10;99.90
30063;DHT22;16889;67.864;24.990;2023-06-22T14:44:27;21.40;99.90
30063;DHT22;16889;67.864;24.990;2023-06-22T14:49:14;21.00;99.90
30063;DHT22;16889;67.864;24.990;2023-06-22T14:54:00;20.60;99.90
30063;DHT22;16889;67.864;24.990;2023-06-22T14:58:48;20.30;99.90
30063;DHT22;16889;67.864;24.990;2023-06-22T15:03:35;20.40;99.90
30063;DHT22;16889;67.864;24.990;2023-06-22T15:08:21;20.30;99.90
30063;DHT22;16889;67.864;24.990;2023-06-22T15:13:07;20.20;99.90
30063;DHT22;16889;67.864;24.990;2023-06-22T15:17:53;19.80;99.90
30063;DHT22;16889;67.864;24.990;2023-06-22T15:22:39;20.10;99.90
30063;DHT22;16889;67.864;24.990;2023-06-22T15:27:25;20.50;99.90
30063;DHT22;16889;67.864;24.990;2023-06-22T15:32:11;20.90;99.90
30063;DHT22;16889;67.864;24.990;2023-06-22T15:36:57;21.20;99.90
30063;DHT22;16889;67.864;24.990;2023-06-22T15:41:43;21.50;99.90
30063;DHT22;16889;67.864;24.990;2023-06-22T15:46:30;21.40;99.90
30063;DHT22;16889;67.864;24.990;2023-06-22T15:51:16;21.40;99.90
30063;DHT22;16889;67.864;24.990;2023-06-22T15:56:02;21.00;99.90
30063;DHT22;16889;67.864;24.990;2023-06-22T16:00:48;21.10;99.90
30063;DHT22;16889;67.864;24.990;2023-06-22T16:05:34;21.50;99.90
30063;DHT22;16889;67.864;24.990;2023-06-22T16:10:20;21.90;99.90
30063;DHT22;16889;67.864;24.990;2023-06-22T16:15:06;21.80;99.90
30063;DHT22;16889;67.864;24.990;2023-06-22T16:19:53;21.30;99.90
30063;DHT22;16889;67.864;24.990;2023-06-22T16:24:40;20.80;99.90
30063;DHT22;16889;67.864;24.990;2023-06-22T16:29:26;20.50;99.90
30063;DHT22;16889;67.864;24.990;2023-06-22T16:34:12;20.00;99.90
30063;DHT22;16889;67.864;24.990;2023-06-22T16:38:58;19.90;99.90
30063;DHT22;16889;67.864;24.990;2023-06-22T16:43:44;19.80;99.90
30063;DHT22;16889;67.864;24.990;2023-06-22T16:48:30;20.00;99.90
30063;DHT22;16889;67.864;24.990;2023-06-22T16:53:16;19.90;99.90
30063;DHT22;16889;67.864;24.990;2023-06-22T16:58:03;19.90;99.90
30063;DHT22;16889;67.864;24.990;2023-06-22T17:02:50;19.70;99.90
30063;DHT22;16889;67.864;24.990;2023-06-22T17:07:37;19.60;99.90
30063;DHT22;16889;67.864;24.990;2023-06-22T17:12:25;19.60;99.90
30063;DHT22;16889;67.864;24.990;2023-06-22T17:17:16;19.80;99.90
30063;DHT22;16889;67.864;24.990;2023-06-22T17:22:03;19.80;99.90
30063;DHT22;16889;67.864;24.990;2023-06-22T17:26:52;19.90;99.90
30063;DHT22;16889;67.864;24.990;2023-06-22T17:31:39;20.00;99.90
30063;DHT22;16889;67.864;24.990;2023-06-22T17:41:33;19.60;99.90
30063;DHT22;16889;67.864;24.990;2023-06-22T17:46:19;19.50;99.90
30063;DHT22;16889;67.864;24.990;2023-06-22T17:51:06;19.60;99.90
30063;DHT22;16889;67.864;24.990;2023-06-22T17:55:53;19.80;99.90
30063;DHT22;16889;67.864;24.990;2023-06-22T18:00:41;19.80;99.90
30063;DHT22;16889;67.864;24.990;2023-06-22T18:05:30;19.80;99.90
30063;DHT22;16889;67.864;24.990;2023-06-22T18:10:16;19.70;99.90
30063;DHT22;16889;67.864;24.990;2023-06-22T18:15:03;19.50;99.90
30063;DHT22;16889;67.864;24.990;2023-06-22T18:19:50;19.50;99.90
30063;DHT22;16889;67.864;24.990;2023-06-22T18:24:38;19.50;99.90
30063;DHT22;16889;67.864;24.990;2023-06-22T18:29:25;19.30;99.90
30063;DHT22;16889;67.864;24.990;2023-06-22T18:34:12;19.10;99.90
30063;DHT22;16889;67.864;24.990;2023-06-22T18:39:02;18.90;99.90
30063;DHT22;16889;67.864;24.990;2023-06-22T18:43:51;18.70;99.90
30063;DHT22;16889;67.864;24.990;2023-06-22T18:48:39;18.40;99.90
30063;DHT22;16889;67.864;24.990;2023-06-22T18:53:26;18.10;99.90
30063;DHT22;16889;67.864;24.990;2023-06-22T18:58:22;18.00;99.90
30063;DHT22;16889;67.864;24.990;2023-06-22T19:03:08;17.80;99.90
30063;DHT22;16889;67.864;24.990;2023-06-22T19:12:43;17.30;99.90
30063;DHT22;16889;67.864;24.990;2023-06-22T19:17:29;17.10;99.90
30063;DHT22;16889;67.864;24.990;2023-06-22T19:22:17;16.90;99.90
30063;DHT22;16889;67.864;24.990;2023-06-22T19:27:03;17.00;99.90
30063;DHT22;16889;67.864;24.990;2023-06-22T19:31:50;17.00;99.90
30063;DHT22;16889;67.864;24.990;2023-06-22T19:36:36;16.80;99.90
30063;DHT22;16889;67.864;24.990;2023-06-22T19:41:22;16.70;99.90
30063;DHT22;16889;67.864;24.990;2023-06-22T19:46:08;16.50;99.90
30063;DHT22;16889;67.864;24.990;2023-06-22T19:50:55;16.50;99.90
30063;DHT22;16889;67.864;24.990;2023-06-22T19:55:45;16.50;99.90
30063;DHT22;16889;67.864;24.990;2023-06-22T20:00:32;16.60;99.90
30063;DHT22;16889;67.864;24.990;2023-06-22T20:05:20;16.50;99.90
30063;DHT22;16889;67.864;24.990;2023-06-22T20:10:16;16.30;99.90
30063;DHT22;16889;67.864;24.990;2023-06-22T20:15:20;16.20;99.90
30063;DHT22;16889;67.864;24.990;2023-06-22T20:20:21;16.00;99.90
30063;DHT22;16889;67.864;24.990;2023-06-22T20:25:07;15.90;99.90
30063;DHT22;16889;67.864;24.990;2023-06-22T20:29:55;15.70;99.90
30063;DHT22;16889;67.864;24.990;2023-06-22T20:34:43;15.60;99.90
30063;DHT22;16889;67.864;24.990;2023-06-22T20:39:31;15.40;99.90
30063;DHT22;16889;67.864;24.990;2023-06-22T20:44:17;15.20;99.90
30063;DHT22;16889;67.864;24.990;2023-06-22T20:49:03;15.00;99.90
30063;DHT22;16889;67.864;24.990;2023-06-22T20:53:49;15.00;99.90
30063;DHT22;16889;67.864;24.990;2023-06-22T20:58:35;14.90;99.90
30063;DHT22;16889;67.864;24.990;2023-06-22T21:03:21;14.80;99.90
30063;DHT22;16889;67.864;24.990;2023-06-22T21:08:07;14.60;99.90
30063;DHT22;16889;67.864;24.990;2023-06-22T21:12:53;14.50;99.90
30063;DHT22;16889;67.864;24.990;2023-06-22T21:17:39;14.30;99.90
30063;DHT22;16889;67.864;24.990;2023-06-22T21:22:26;14.20;99.90
30063;DHT22;16889;67.864;24.990;2023-06-22T21:27:12;14.00;99.90
30063;DHT22;16889;67.864;24.990;2023-06-22T21:31:58;13.90;99.90
30063;DHT22;16889;67.864;24.990;2023-06-22T21:36:44;13.90;99.90
30063;DHT22;16889;67.864;24.990;2023-06-22T21:41:30;13.80;99.90
30063;DHT22;16889;67.864;24.990;2023-06-22T21:46:16;13.70;99.90
30063;DHT22;16889;67.864;24.990;2023-06-22T21:51:02;13.70;99.90
30063;DHT22;16889;67.864;24.990;2023-06-22T21:55:48;13.70;99.90
30063;DHT22;16889;67.864;24.990;2023-06-22T22:00:34;13.70;99.90
30063;DHT22;16889;67.864;24.990;2023-06-22T22:05:20;13.70;99.90
30063;DHT22;16889;67.864;24.990;2023-06-22T22:10:07;13.70;99.90
30063;DHT22;16889;67.864;24.990;2023-06-22T22:14:55;13.60;99.90
30063;DHT22;16889;67.864;24.990;2023-06-22T22:19:41;13.40;99.90
30063;DHT22;16889;67.864;24.990;2023-06-22T22:24:27;13.30;99.90
30063;DHT22;16889;67.864;24.990;2023-06-22T22:29:13;13.20;99.90
30063;DHT22;16889;67.864;24.990;2023-06-22T22:33:59;13.20;99.90
30063;DHT22;16889;67.864;24.990;2023-06-22T22:38:45;13.20;99.90
30063;DHT22;16889;67.864;24.990;2023-06-22T22:43:31;13.20;99.90
30063;DHT22;16889;67.864;24.990;2023-06-22T22:48:18;13.10;99.90
30063;DHT22;16889;67.864;24.990;2023-06-22T22:53:04;12.90;99.90
30063;DHT22;16889;67.864;24.990;2023-06-22T22:57:50;12.90;99.90
30063;DHT22;16889;67.864;24.990;2023-06-22T23:02:36;13.00;99.90
30063;DHT22;16889;67.864;24.990;2023-06-22T23:07:21;13.10;99.90
30063;DHT22;16889;67.864;24.990;2023-06-22T23:12:08;13.20;99.90
30063;DHT22;16889;67.864;24.990;2023-06-22T23:16:54;13.20;99.90
30063;DHT22;16889;67.864;24.990;2023-06-22T23:21:42;13.10;99.90
30063;DHT22;16889;67.864;24.990;2023-06-22T23:26:28;13.20;99.90
30063;DHT22;16889;67.864;24.990;2023-06-22T23:31:14;13.40;99.90
30063;DHT22;16889;67.864;24.990;2023-06-22T23:36:00;13.50;99.90
30063;DHT22;16889;67.864;24.990;2023-06-22T23:40:45;13.50;99.90
30063;DHT22;16889;67.864;24.990;2023-06-22T23:45:31;13.60;99.90
30063;DHT22;16889;67.864;24.990;2023-06-22T23:50:18;13.80;99.90
30063;DHT22;16889;67.864;24.990;2023-06-22T23:55:04;13.70;99.90
30063;DHT22;16889;67.864;24.990;2023-06-22T23:59:51;13.80;99.90
